createdAt,value
2018-07-04T00:02:36.450Z,22.35
2018-07-04T00:05:30.309Z,22.21
2018-07-04T00:08:23.929Z,22.09
2018-07-04T00:11:17.432Z,22.07
2018-07-04T00:14:11.062Z,22.07
2018-07-04T00:17:04.490Z,22.08
2018-07-04T00:19:58.104Z,22.06
2018-07-04T00:22:51.701Z,21.90
2018-07-04T00:25:45.527Z,21.79
2018-07-04T00:28:39.452Z,21.60
2018-07-04T00:31:33.465Z,21.52
2018-07-04T00:34:27.222Z,21.37
2018-07-04T00:37:20.890Z,21.31
2018-07-04T00:40:14.623Z,21.21
2018-07-04T00:43:08.152Z,21.19
2018-07-04T00:46:01.578Z,21.16
2018-07-04T00:48:55.003Z,21.17
2018-07-04T00:51:48.597Z,20.97
2018-07-04T00:54:42.183Z,20.82
2018-07-04T00:57:35.849Z,20.73
2018-07-04T01:00:29.639Z,20.77
2018-07-04T01:03:17.472Z,20.80
2018-07-04T01:06:10.974Z,20.83
2018-07-04T01:09:05.114Z,20.82
2018-07-04T01:11:58.706Z,20.84
2018-07-04T01:14:52.271Z,20.90
2018-07-04T01:17:45.887Z,20.98
2018-07-04T01:20:44.887Z,21.01
2018-07-04T01:23:38.366Z,21.01
2018-07-04T01:26:32.321Z,21.03
2018-07-04T01:29:26.371Z,21.03
2018-07-04T01:32:19.789Z,21.01
2018-07-04T01:35:07.772Z,20.92
2018-07-04T01:38:02.956Z,20.87
2018-07-04T01:40:56.523Z,20.86
2018-07-04T01:43:49.984Z,20.68
2018-07-04T01:46:43.588Z,20.75
2018-07-04T01:49:37.119Z,20.75
2018-07-04T01:52:30.857Z,20.77
2018-07-04T01:55:24.497Z,20.85
2018-07-04T01:58:18.038Z,20.89
2018-07-04T02:01:11.674Z,20.88
2018-07-04T02:03:59.296Z,20.88
2018-07-04T02:06:52.755Z,20.82
2018-07-04T02:09:47.604Z,20.79
2018-07-04T02:12:41.494Z,20.76
2018-07-04T02:15:35.310Z,20.77
2018-07-04T02:18:28.770Z,20.83
2018-07-04T02:21:22.367Z,20.84
2018-07-04T02:24:15.953Z,20.81
2018-07-04T02:27:03.512Z,20.72
2018-07-04T02:29:51.011Z,20.68
2018-07-04T02:32:44.633Z,20.56
2018-07-04T02:35:38.294Z,20.43
2018-07-04T02:38:31.897Z,20.42
2018-07-04T02:41:25.510Z,20.35
2018-07-04T02:44:19.455Z,20.30
2018-07-04T02:47:18.387Z,20.25
2018-07-04T02:50:12.198Z,20.23
2018-07-04T02:53:05.879Z,20.24
2018-07-04T02:55:59.499Z,20.22
2018-07-04T02:58:53.324Z,20.24
2018-07-04T03:01:47.306Z,20.27
2018-07-04T03:04:34.887Z,20.29
2018-07-04T03:07:28.308Z,20.33
2018-07-04T03:10:21.879Z,20.38
2018-07-04T03:13:15.499Z,20.41
2018-07-04T03:16:09.397Z,20.33
2018-07-04T03:18:57.007Z,20.28
2018-07-04T03:21:50.449Z,20.20
2018-07-04T03:24:44.081Z,20.16
2018-07-04T03:27:37.557Z,20.14
2018-07-04T03:30:25.113Z,20.03
2018-07-04T03:33:18.673Z,19.89
2018-07-04T03:36:12.377Z,19.87
2018-07-04T03:39:06.869Z,19.81
2018-07-04T03:42:00.676Z,19.84
2018-07-04T03:44:54.465Z,19.92
2018-07-04T03:47:48.733Z,19.77
2018-07-04T03:50:42.270Z,19.69
2018-07-04T03:53:37.829Z,19.69
2018-07-04T03:56:32.078Z,19.60
2018-07-04T03:59:25.915Z,19.66
2018-07-04T04:02:19.722Z,19.66
2018-07-04T04:05:13.787Z,19.76
2018-07-04T04:08:07.581Z,19.72
2018-07-04T04:11:01.346Z,19.80
2018-07-04T04:13:55.044Z,19.89
2018-07-04T04:16:49.023Z,19.99
2018-07-04T04:19:42.960Z,20.01
2018-07-04T04:22:36.552Z,20.03
2018-07-04T04:25:30.283Z,19.97
2018-07-04T04:28:24.105Z,19.95
2018-07-04T04:31:18.047Z,19.99
2018-07-04T04:34:11.820Z,19.96
2018-07-04T04:37:05.604Z,19.90
2018-07-04T04:40:06.299Z,19.81
2018-07-04T04:43:00.021Z,19.70
2018-07-04T04:45:53.616Z,19.65
2018-07-04T04:48:47.490Z,19.66
2018-07-04T04:51:41.065Z,19.65
2018-07-04T04:54:34.746Z,19.73
2018-07-04T04:57:28.477Z,19.78
2018-07-04T05:00:16.407Z,19.84
2018-07-04T05:03:10.077Z,19.81
2018-07-04T05:06:03.949Z,19.77
2018-07-04T05:08:57.590Z,19.73
2018-07-04T05:11:51.687Z,19.78
2018-07-04T05:14:45.183Z,19.87
2018-07-04T05:21:10.832Z,19.89
2018-07-04T05:24:04.426Z,19.92
2018-07-04T05:26:57.952Z,19.87
2018-07-04T05:29:55.383Z,19.78
2018-07-04T05:32:48.965Z,19.73
2018-07-04T05:35:42.787Z,19.71
2018-07-04T05:38:36.521Z,19.77
2018-07-04T05:41:30.106Z,19.79
2018-07-04T05:44:24.006Z,19.83
2018-07-04T05:47:18.109Z,19.86
2018-07-04T05:50:20.039Z,19.88
2018-07-04T05:56:20.880Z,19.78
2018-07-04T05:59:14.678Z,19.67
2018-07-04T06:02:08.987Z,19.63
2018-07-04T06:05:02.889Z,19.74
2018-07-04T06:07:56.566Z,19.82
2018-07-04T06:10:50.109Z,20.06
2018-07-04T06:13:37.675Z,20.19
2018-07-04T06:16:31.313Z,20.29
2018-07-04T06:19:24.996Z,20.51
2018-07-04T06:22:18.487Z,20.85
2018-07-04T06:25:12.270Z,21.06
2018-07-04T06:28:05.890Z,21.29
2018-07-04T06:30:59.423Z,21.47
2018-07-04T06:33:53.098Z,21.72
2018-07-04T06:36:46.908Z,21.81
2018-07-04T06:39:22.607Z,22.10
2018-07-04T06:41:52.018Z,22.35
2018-07-04T06:44:20.921Z,22.50
2018-07-04T06:46:52.303Z,22.49
2018-07-04T06:49:23.488Z,22.61
2018-07-04T06:51:52.388Z,22.67
2018-07-04T06:54:24.612Z,22.84
2018-07-04T06:56:53.516Z,23.03
2018-07-04T06:59:25.176Z,23.01
2018-07-04T07:01:54.075Z,23.08
2018-07-04T07:04:48.582Z,23.35
2018-07-04T07:07:42.252Z,23.51
2018-07-04T07:10:38.360Z,23.87
2018-07-04T07:13:31.743Z,24.15
2018-07-04T07:16:27.305Z,24.26
2018-07-04T07:19:20.755Z,24.27
2018-07-04T07:22:14.364Z,24.30
2018-07-04T07:25:08.040Z,24.50
2018-07-04T07:28:01.649Z,24.63
2018-07-04T07:30:55.830Z,24.86
2018-07-04T07:33:49.560Z,25.10
2018-07-04T07:36:43.172Z,25.57
2018-07-04T07:39:36.677Z,26.07
2018-07-04T07:42:34.978Z,26.47
2018-07-04T07:45:28.498Z,26.63
2018-07-04T07:48:22.140Z,26.41
2018-07-04T07:51:15.794Z,26.39
2018-07-04T07:54:10.232Z,26.27
2018-07-04T07:57:04.683Z,26.13
2018-07-04T07:59:52.274Z,26.64
2018-07-04T08:02:45.896Z,27.15
2018-07-04T08:05:39.553Z,27.73
2018-07-04T08:08:33.173Z,28.01
2018-07-04T08:11:26.633Z,28.24
2018-07-04T08:14:20.173Z,28.52
2018-07-04T08:17:13.899Z,28.58
2018-07-04T08:20:07.747Z,28.55
2018-07-04T08:23:02.048Z,28.56
2018-07-04T08:25:55.571Z,28.74
2018-07-04T08:28:49.935Z,28.75
2018-07-04T08:31:43.693Z,28.50
2018-07-04T08:34:38.597Z,28.47
2018-07-04T08:37:37.296Z,28.08
2018-07-04T08:40:32.046Z,28.16
2018-07-04T08:43:25.729Z,28.17
2018-07-04T08:46:20.757Z,28.49
2018-07-04T08:49:14.433Z,29.24
2018-07-04T08:52:08.142Z,29.58
2018-07-04T08:55:01.668Z,29.93
2018-07-04T08:57:55.378Z,30.16
2018-07-04T09:00:48.966Z,30.18
2018-07-04T09:03:42.593Z,29.94
2018-07-04T09:06:36.905Z,30.36
2018-07-04T09:09:30.556Z,30.64
2018-07-04T09:12:18.090Z,30.66
2018-07-04T09:15:05.675Z,30.43
2018-07-04T09:17:59.172Z,30.43
2018-07-04T09:20:52.800Z,30.70
2018-07-04T09:23:46.309Z,30.84
2018-07-04T09:26:39.882Z,30.75
2018-07-04T09:29:33.603Z,30.69
2018-07-04T09:32:32.897Z,30.76
2018-07-04T09:35:28.317Z,30.77
2018-07-04T09:38:26.596Z,30.68
2018-07-04T09:41:23.108Z,30.32
2018-07-04T09:44:21.328Z,30.27
2018-07-04T09:47:16.271Z,30.35
2018-07-04T09:50:10.375Z,30.45
2018-07-04T09:53:03.825Z,30.55
2018-07-04T09:55:57.250Z,30.51
2018-07-04T09:58:51.059Z,31.00
2018-07-04T10:01:38.781Z,31.60
2018-07-04T10:04:32.204Z,32.03
2018-07-04T10:07:25.908Z,31.81
2018-07-04T10:10:20.203Z,30.99
2018-07-04T10:13:17.151Z,30.81
2018-07-04T10:16:10.721Z,30.60
2018-07-04T10:19:04.320Z,30.59
2018-07-04T10:21:58.093Z,30.14
2018-07-04T10:24:51.746Z,29.95
2018-07-04T10:27:45.240Z,29.86
2018-07-04T10:30:38.954Z,29.77
2018-07-04T10:33:32.519Z,29.65
2018-07-04T10:36:26.107Z,29.91
2018-07-04T10:39:19.707Z,30.36
2018-07-04T10:42:13.558Z,30.89
2018-07-04T10:45:07.158Z,30.93
2018-07-04T10:48:00.978Z,30.86
2018-07-04T10:50:54.906Z,31.14
2018-07-04T10:53:48.746Z,31.52
2018-07-04T10:56:42.389Z,31.83
2018-07-04T10:59:35.933Z,32.11
2018-07-04T11:02:32.768Z,32.38
2018-07-04T11:05:27.758Z,32.58
2018-07-04T11:08:21.554Z,32.69
2018-07-04T11:11:16.917Z,32.93
2018-07-04T11:14:05.767Z,32.91
2018-07-04T11:16:59.652Z,32.97
2018-07-04T11:19:53.350Z,33.04
2018-07-04T11:22:49.317Z,32.95
2018-07-04T11:25:42.912Z,32.91
2018-07-04T11:28:36.583Z,32.66
2018-07-04T11:31:31.415Z,32.33
2018-07-04T11:34:25.313Z,32.47
2018-07-04T11:37:18.960Z,32.33
2018-07-04T11:40:12.596Z,32.01
2018-07-04T11:43:06.127Z,31.91
2018-07-04T11:45:59.573Z,32.09
2018-07-04T11:48:28.646Z,31.83
2018-07-04T11:50:57.452Z,31.76
2018-07-04T11:53:26.237Z,31.93
2018-07-04T11:55:55.060Z,32.09
2018-07-04T11:58:24.056Z,32.15
2018-07-04T12:00:55.849Z,32.06
2018-07-04T12:03:26.162Z,31.93
2018-07-04T12:06:13.648Z,31.88
2018-07-04T12:08:48.676Z,31.68
2018-07-04T12:11:17.487Z,31.59
2018-07-04T12:13:46.333Z,31.61
2018-07-04T12:16:15.161Z,31.56
2018-07-04T12:18:43.993Z,31.56
2018-07-04T12:21:12.815Z,31.55
2018-07-04T12:23:49.081Z,31.50
2018-07-04T12:26:17.887Z,31.42
2018-07-04T12:28:46.693Z,31.44
2018-07-04T12:31:15.476Z,31.55
2018-07-04T12:33:44.332Z,31.58
2018-07-04T12:36:18.861Z,31.59
2018-07-04T12:38:47.684Z,31.47
2018-07-04T12:41:16.486Z,31.28
2018-07-04T12:43:45.301Z,31.27
2018-07-04T12:46:14.284Z,31.12
2018-07-04T12:48:43.069Z,31.16
2018-07-04T12:51:11.953Z,31.01
2018-07-04T12:53:41.195Z,30.95
2018-07-04T12:56:28.529Z,30.98
2018-07-04T12:59:23.372Z,30.98
2018-07-04T13:02:18.051Z,30.62
2018-07-04T13:05:08.524Z,30.66
2018-07-04T13:08:02.210Z,30.63
2018-07-04T13:10:55.941Z,30.45
2018-07-04T13:13:49.679Z,30.39
2018-07-04T13:16:43.385Z,30.36
2018-07-04T13:19:37.213Z,30.39
2018-07-04T13:22:31.137Z,30.40
2018-07-04T13:25:24.969Z,30.44
2018-07-04T13:28:18.694Z,30.24
2018-07-04T13:31:12.324Z,30.22
2018-07-04T13:34:05.955Z,30.22
2018-07-04T13:36:59.436Z,30.13
2018-07-04T13:39:53.600Z,30.03
2018-07-04T13:42:47.505Z,29.90
2018-07-04T13:45:41.134Z,29.88
2018-07-04T13:48:34.902Z,29.80
2018-07-04T13:51:28.620Z,29.84
2018-07-04T13:54:22.242Z,29.91
2018-07-04T13:57:15.996Z,29.89
2018-07-04T14:00:09.565Z,29.73
2018-07-04T14:03:03.608Z,29.61
2018-07-04T14:05:57.624Z,29.43
2018-07-04T14:08:51.587Z,29.46
2018-07-04T14:11:46.328Z,29.57
2018-07-04T14:14:40.100Z,29.71
2018-07-04T14:17:33.786Z,29.81
2018-07-04T14:20:27.385Z,29.76
2018-07-04T14:23:21.249Z,29.92
2018-07-04T14:26:15.721Z,29.98
2018-07-04T14:29:09.371Z,30.14
2018-07-04T14:32:03.234Z,30.30
2018-07-04T14:34:57.128Z,30.41
2018-07-04T14:37:50.927Z,30.21
2018-07-04T14:40:52.628Z,29.99
2018-07-04T14:46:52.735Z,29.88
2018-07-04T14:49:40.321Z,29.93
2018-07-04T14:52:33.843Z,30.02
2018-07-04T14:55:27.571Z,29.99
2018-07-04T14:58:22.967Z,29.94
2018-07-04T15:01:18.725Z,29.90
2018-07-04T15:04:12.812Z,29.89
2018-07-04T15:07:09.234Z,29.58
2018-07-04T15:10:04.021Z,29.90
2018-07-04T15:12:58.005Z,29.92
2018-07-04T15:15:51.900Z,29.90
2018-07-04T15:18:45.848Z,29.77
2018-07-04T15:21:40.498Z,29.73
2018-07-04T15:24:34.198Z,29.72
2018-07-04T15:27:27.911Z,29.64
2018-07-04T15:30:26.998Z,29.69
2018-07-04T15:37:20.211Z,29.70
2018-07-04T15:40:14.059Z,29.80
2018-07-04T15:43:07.727Z,29.89
2018-07-04T15:46:01.637Z,29.98
2018-07-04T15:48:55.386Z,29.94
2018-07-04T15:51:48.923Z,29.99
2018-07-04T15:54:42.519Z,29.90
2018-07-04T15:57:36.455Z,29.95
2018-07-04T16:00:37.623Z,30.00
2018-07-04T16:03:30.947Z,29.88
2018-07-04T16:06:24.747Z,30.05
2018-07-04T16:09:18.340Z,30.16
2018-07-04T16:12:12.303Z,30.26
2018-07-04T16:15:05.801Z,30.35
2018-07-04T16:17:59.563Z,30.43
2018-07-04T16:20:59.382Z,30.12
2018-07-04T16:23:47.184Z,30.11
2018-07-04T16:26:40.802Z,30.15
2018-07-04T16:32:45.897Z,30.19
2018-07-04T16:35:45.854Z,30.18
2018-07-04T16:41:44.267Z,30.34
2018-07-04T16:44:31.732Z,30.36
2018-07-04T16:47:25.463Z,30.36
2018-07-04T16:50:22.036Z,30.36
2018-07-04T16:53:18.341Z,30.27
2018-07-04T16:56:14.363Z,29.98
2018-07-04T16:59:12.429Z,29.77
2018-07-04T17:02:00.091Z,29.70
2018-07-04T17:04:53.652Z,29.88
2018-07-04T17:07:47.248Z,29.95
2018-07-04T17:10:41.048Z,29.98
2018-07-04T17:13:34.674Z,29.97
2018-07-04T17:16:28.400Z,30.03
2018-07-04T17:19:15.882Z,30.05
2018-07-04T17:22:09.666Z,30.06
2018-07-04T17:25:03.197Z,30.03
2018-07-04T17:27:56.750Z,29.84
2018-07-04T17:30:52.051Z,29.85
2018-07-04T17:33:45.414Z,29.90
2018-07-04T17:36:39.076Z,29.93
2018-07-04T17:39:26.562Z,29.93
2018-07-04T17:42:20.149Z,29.93
2018-07-04T17:45:13.851Z,29.91
2018-07-04T17:48:07.580Z,29.92
2018-07-04T17:51:01.342Z,29.85
2018-07-04T17:53:55.134Z,29.80
2018-07-04T17:56:43.186Z,29.58
2018-07-04T17:59:36.576Z,29.62
2018-07-04T18:02:30.246Z,29.55
2018-07-04T18:05:23.845Z,29.53
2018-07-04T18:08:17.240Z,29.52
2018-07-04T18:11:10.773Z,29.51
2018-07-04T18:14:04.377Z,29.50
2018-07-04T18:16:57.901Z,29.35
2018-07-04T18:19:51.441Z,29.46
2018-07-04T18:22:45.192Z,29.42
2018-07-04T18:25:39.100Z,29.38
2018-07-04T18:28:32.605Z,29.29
2018-07-04T18:35:23.422Z,29.17
2018-07-04T18:38:17.014Z,29.15
2018-07-04T18:41:10.486Z,29.13
2018-07-04T18:44:04.110Z,29.10
2018-07-04T18:46:57.673Z,29.04
2018-07-04T18:49:52.058Z,28.98
2018-07-04T18:52:45.590Z,28.96
2018-07-04T18:55:39.380Z,28.93
2018-07-04T18:58:32.930Z,28.86
2018-07-04T19:01:26.828Z,28.84
2018-07-04T19:04:20.035Z,28.77
2018-07-04T19:07:13.623Z,28.75
2018-07-04T19:10:01.349Z,28.73
2018-07-04T19:12:54.978Z,28.68
2018-07-04T19:15:48.762Z,28.63
2018-07-04T19:18:42.461Z,28.57
2018-07-04T19:21:35.968Z,28.47
2018-07-04T19:24:31.708Z,28.37
2018-07-04T19:27:30.884Z,28.36
2018-07-04T19:30:27.487Z,28.34
2018-07-04T19:33:17.669Z,28.34
2018-07-04T19:36:11.604Z,28.28
2018-07-04T19:39:05.982Z,28.18
2018-07-04T19:41:59.730Z,28.16
2018-07-04T19:44:53.595Z,28.10
2018-07-04T19:47:50.209Z,28.02
2018-07-04T19:50:43.943Z,27.93
2018-07-04T19:53:37.424Z,27.82
2018-07-04T19:56:31.183Z,27.73
2018-07-04T19:59:24.697Z,27.66
2018-07-04T20:02:18.237Z,27.58
2018-07-04T20:05:12.382Z,27.49
2018-07-04T20:08:06.131Z,27.38
2018-07-04T20:11:01.472Z,27.34
2018-07-04T20:13:55.705Z,27.25
2018-07-04T20:16:43.261Z,27.19
2018-07-04T20:19:36.798Z,27.17
2018-07-04T20:22:30.321Z,27.15
2018-07-04T20:25:24.019Z,27.15
2018-07-04T20:28:18.066Z,27.16
2018-07-04T20:31:12.854Z,27.12
2018-07-04T20:34:06.269Z,27.08
2018-07-04T20:37:00.157Z,27.10
2018-07-04T20:39:53.764Z,27.10
2018-07-04T20:42:47.454Z,27.06
2018-07-04T20:45:42.496Z,27.02
2018-07-04T20:48:37.973Z,26.93
2018-07-04T20:51:33.328Z,26.94
2018-07-04T20:54:28.645Z,26.93
2018-07-04T20:57:24.184Z,26.95
2018-07-04T21:00:19.083Z,26.91
2018-07-04T21:03:12.652Z,26.87
2018-07-04T21:06:06.263Z,26.88
2018-07-04T21:08:59.751Z,26.80
2018-07-04T21:12:00.125Z,26.73
2018-07-04T21:14:54.236Z,26.65
2018-07-04T21:17:49.252Z,26.63
2018-07-04T21:20:44.668Z,26.65
2018-07-04T21:23:39.214Z,26.61
2018-07-04T21:26:35.149Z,26.45
2018-07-04T21:29:30.863Z,26.28
2018-07-04T21:32:24.556Z,26.16
2018-07-04T21:35:19.046Z,26.03
2018-07-04T21:38:14.228Z,25.98
2018-07-04T21:41:10.185Z,25.90
2018-07-04T21:44:05.166Z,25.82
2018-07-04T21:46:58.893Z,25.79
2018-07-04T21:49:52.491Z,25.77
2018-07-04T21:52:48.228Z,25.69
2018-07-04T21:55:43.419Z,25.68
2018-07-04T21:58:38.910Z,25.66
2018-07-04T22:01:33.943Z,25.62
2018-07-04T22:04:29.090Z,25.61
2018-07-04T22:07:24.194Z,25.66
2018-07-04T22:10:20.392Z,25.64
2018-07-04T22:13:15.841Z,25.62
2018-07-04T22:16:11.436Z,25.62
2018-07-04T22:19:07.134Z,25.60
2018-07-04T22:22:02.793Z,25.59
2018-07-04T22:24:58.479Z,25.56
2018-07-04T22:27:54.775Z,25.56
2018-07-04T22:30:48.356Z,25.50
2018-07-04T22:33:41.987Z,25.48
2018-07-04T22:36:35.888Z,25.44
2018-07-04T22:39:30.100Z,25.37
2018-07-04T22:42:25.508Z,25.32
2018-07-04T22:45:21.255Z,24.99
2018-07-04T22:48:14.880Z,24.82
2018-07-04T22:51:09.532Z,24.75
2018-07-04T22:54:05.318Z,24.79
2018-07-04T22:57:00.807Z,24.71
2018-07-04T22:59:56.286Z,24.83
2018-07-04T23:02:51.810Z,24.83
2018-07-04T23:05:45.366Z,24.83
2018-07-04T23:08:41.139Z,24.86
2018-07-04T23:11:36.432Z,24.92
2018-07-04T23:14:25.946Z,24.95
2018-07-04T23:17:19.626Z,25.02
2018-07-04T23:20:14.982Z,25.04
2018-07-04T23:23:10.681Z,25.08
2018-07-04T23:26:04.325Z,25.09
2018-07-04T23:29:00.209Z,25.07
2018-07-04T23:31:55.685Z,25.02
2018-07-04T23:34:51.381Z,24.97
2018-07-04T23:37:46.739Z,24.91
2018-07-04T23:40:34.955Z,24.85
2018-07-04T23:43:30.606Z,24.84
2018-07-04T23:46:26.365Z,24.84
2018-07-04T23:49:22.671Z,24.80
2018-07-04T23:52:18.258Z,24.76
2018-07-04T23:55:07.846Z,24.72
2018-07-04T23:58:03.528Z,24.69
